Time;durP1;ratioP1;P1;durP2;ratioP2;P2;SDS_P1;SDS_P2;PMS_P1;PMS_P2;Temp;Humidity;BMP_temperature;BMP_pressure;BME280_temperature;BME280_humidity;BME280_pressure;Samples;Min_cycle;Max_cycle;Signal;HPM_P1;HPM_P2
2022/10/27 00:01:18;;;;;;;11.18;5.00;;;;;;;13.78;100.00;102059.16;5058112;28;20047;-69
2022/10/27 00:03:43;;;;;;;9.60;4.53;;;;;;;13.84;100.00;102064.16;5051945;28;20071;-69
2022/10/27 00:06:10;;;;;;;13.80;5.32;;;;;;;13.90;100.00;102066.47;5057192;28;20143;-68
2022/10/27 00:08:36;;;;;;;8.18;5.03;;;;;;;13.95;100.00;102070.63;5053400;28;20032;-68
2022/10/27 00:11:04;;;;;;;12.48;5.18;;;;;;;13.97;100.00;102067.88;5052779;28;20482;-68
2022/10/27 00:13:30;;;;;;;10.73;5.03;;;;;;;13.94;100.00;102074.25;5048573;28;20125;-69
2022/10/27 00:16:04;;;;;;;14.30;5.38;;;;;;;13.97;100.00;102070.53;5055739;28;20024;-68
2022/10/27 00:18:30;;;;;;;10.02;5.07;;;;;;;13.99;100.00;102065.94;5069819;28;20075;-70
2022/10/27 00:21:06;;;;;;;12.45;5.07;;;;;;;14.02;100.00;102070.28;5055379;28;20037;-68
2022/10/27 00:23:32;;;;;;;8.65;4.63;;;;;;;14.00;100.00;102076.56;5054170;28;20052;-70
2022/10/27 00:25:59;;;;;;;10.82;4.40;;;;;;;14.02;100.00;102075.66;5056029;28;20045;-68
2022/10/27 00:28:25;;;;;;;10.07;5.40;;;;;;;14.07;100.00;102074.41;5061270;28;20056;-69
2022/10/27 00:30:59;;;;;;;12.02;4.53;;;;;;;14.06;100.00;102080.75;5058944;28;20041;-69
2022/10/27 00:33:25;;;;;;;10.30;4.72;;;;;;;14.06;100.00;102079.88;5056565;28;20560;-69
2022/10/27 00:35:50;;;;;;;9.23;4.82;;;;;;;14.14;100.00;102089.19;5056756;28;20048;-68
2022/10/27 00:38:16;;;;;;;13.63;5.40;;;;;;;14.14;100.00;102082.97;5058906;28;20271;-70
2022/10/27 00:40:41;;;;;;;8.50;4.90;;;;;;;14.03;100.00;102082.72;5057324;28;20047;-69
2022/10/27 00:43:36;;;;;;;21.05;5.40;;;;;;;13.93;100.00;102087.75;5054767;28;20086;-68
2022/10/27 00:46:19;;;;;;;12.85;5.13;;;;;;;13.71;100.00;102083.63;5071079;28;20734;-68
2022/10/27 00:48:48;;;;;;;18.00;6.20;;;;;;;13.63;100.00;102082.31;5050839;28;20102;-69
2022/10/27 00:51:17;;;;;;;11.52;4.93;;;;;;;13.61;100.00;102086.91;5061846;28;20036;-68
2022/10/27 00:53:44;;;;;;;13.43;4.78;;;;;;;13.58;100.00;102089.75;5055324;28;20037;-69
2022/10/27 00:56:10;;;;;;;9.00;5.00;;;;;;;13.51;100.00;102088.38;5062283;28;20098;-69
2022/10/27 00:58:35;;;;;;;12.13;4.93;;;;;;;13.36;100.00;102092.78;5050173;28;20040;-69
2022/10/27 01:01:01;;;;;;;12.10;5.18;;;;;;;13.34;100.00;102089.28;5055237;28;20094;-69
2022/10/27 01:03:27;;;;;;;17.65;6.05;;;;;;;13.10;100.00;102094.13;5057078;28;20049;-69
2022/10/27 01:05:56;;;;;;;11.60;5.57;;;;;;;13.17;100.00;102107.13;5052056;28;20040;-68
2022/10/27 01:08:22;;;;;;;11.13;5.50;;;;;;;13.10;100.00;102110.22;5071618;28;20041;-69
2022/10/27 01:10:49;;;;;;;11.95;5.28;;;;;;;13.11;100.00;102109.28;5059807;28;20036;-69
2022/10/27 01:13:15;;;;;;;9.57;5.63;;;;;;;13.17;100.00;102114.31;5059468;28;20040;-69
2022/10/27 01:16:19;;;;;;;12.82;5.60;;;;;;;13.15;100.00;102111.72;5058783;28;20072;-68
2022/10/27 01:18:54;;;;;;;13.48;6.13;;;;;;;13.17;100.00;102103.59;5016436;28;20061;-68
2022/10/27 01:21:32;;;;;;;13.32;6.82;;;;;;;13.23;100.00;102110.47;5012008;28;20123;-68
2022/10/27 01:24:42;;;;;;;13.90;7.43;;;;;;;13.48;100.00;102106.34;5018176;28;20520;-68
2022/10/27 01:27:30;;;;;;;21.98;7.57;;;;;;;13.67;100.00;102106.19;4956039;28;20035;-68
2022/10/27 01:30:05;;;;;;;18.10;7.63;;;;;;;13.70;100.00;102108.72;4962114;28;20050;-69
2022/10/27 01:32:53;;;;;;;13.25;7.30;;;;;;;13.81;100.00;102110.78;4956813;28;20583;-68
2022/10/27 01:35:37;;;;;;;20.23;9.77;;;;;;;13.82;100.00;102112.50;4952755;28;20054;-67
2022/10/27 01:38:15;;;;;;;16.50;8.32;;;;;;;13.82;100.00;102117.00;4961711;28;20072;-68
2022/10/27 01:40:45;;;;;;;19.90;8.93;;;;;;;13.85;100.00;102115.00;4937907;28;20097;-68
2022/10/27 01:43:20;;;;;;;18.98;8.43;;;;;;;13.67;100.00;102114.25;4959155;28;20109;-69
2022/10/27 01:45:47;;;;;;;19.13;8.70;;;;;;;13.64;100.00;102121.56;4959849;28;20086;-69
2022/10/27 01:48:13;;;;;;;18.52;8.75;;;;;;;13.59;100.00;102118.28;4954136;28;20054;-69
2022/10/27 01:50:41;;;;;;;18.45;8.73;;;;;;;13.53;100.00;102114.13;4958700;28;20166;-69
2022/10/27 01:53:09;;;;;;;15.38;8.48;;;;;;;13.41;100.00;102117.50;4961027;28;20053;-69
2022/10/27 01:56:02;;;;;;;22.02;9.38;;;;;;;13.40;100.00;102119.31;4981297;28;20141;-69
2022/10/27 01:58:54;;;;;;;17.25;9.35;;;;;;;13.28;100.00;102113.75;4996685;28;20045;-69
2022/10/27 02:01:48;;;;;;;20.88;9.27;;;;;;;13.28;100.00;102113.75;5035278;28;20644;-69
2022/10/27 02:04:29;;;;;;;17.98;9.82;;;;;;;13.18;100.00;102116.03;5054923;28;20119;-69
2022/10/27 02:07:03;;;;;;;16.67;9.02;;;;;;;13.14;100.00;102117.13;5069214;28;20048;-69
2022/10/27 02:10:01;;;;;;;15.25;10.00;;;;;;;13.13;100.00;102116.28;5059657;28;20115;-68
2022/10/27 02:12:32;;;;;;;15.25;9.38;;;;;;;13.20;100.00;102112.34;5066320;28;20037;-68
2022/10/27 02:15:00;;;;;;;16.60;9.75;;;;;;;13.10;100.00;102110.22;5074966;28;20037;-68
2022/10/27 02:17:32;;;;;;;15.15;10.27;;;;;;;13.09;100.00;102106.66;5058223;28;20037;-69
2022/10/27 02:19:59;;;;;;;20.33;10.60;;;;;;;13.12;100.00;102108.34;5061643;28;20083;-68
2022/10/27 02:22:28;;;;;;;26.25;10.55;;;;;;;13.12;100.00;102111.00;5056067;28;20050;-68
2022/10/27 02:24:54;;;;;;;19.02;10.75;;;;;;;13.08;100.00;102112.97;5062962;28;20052;-68
2022/10/27 02:27:26;;;;;;;19.13;11.73;;;;;;;13.05;100.00;102107.81;5061751;28;20046;-68
2022/10/27 02:29:55;;;;;;;;;;;;;;;13.07;100.00;102110.38;5060234;28;20048;-68
2022/10/27 02:32:22;;;;;;;20.15;11.10;;;;;;;13.04;100.00;102106.03;5055381;28;20043;-69
2022/10/27 02:34:49;;;;;;;22.92;12.63;;;;;;;12.99;100.00;102100.06;5062273;28;20044;-68
2022/10/27 02:37:26;;;;;;;22.00;10.88;;;;;;;12.98;100.00;102095.66;5058333;28;20515;-69
2022/10/27 02:39:51;;;;;;;20.08;11.57;;;;;;;12.95;100.00;102102.06;5063543;28;20049;-69
2022/10/27 02:42:17;;;;;;;15.73;10.20;;;;;;;12.91;100.00;102091.59;5060239;28;20055;-68
2022/10/27 02:44:42;;;;;;;25.17;10.45;;;;;;;12.99;100.00;102094.72;5061435;28;20043;-69
2022/10/27 02:47:07;;;;;;;19.42;9.60;;;;;;;12.95;100.00;102094.03;5049477;28;20083;-68
2022/10/27 02:49:33;;;;;;;31.10;11.70;;;;;;;12.96;100.00;102092.22;5058109;28;20063;-69
2022/10/27 02:51:58;;;;;;;15.57;9.85;;;;;;;12.86;100.00;102094.53;5050621;28;20087;-67
2022/10/27 02:54:24;;;;;;;14.80;8.45;;;;;;;12.95;100.00;102095.81;5059991;28;20098;-69
2022/10/27 02:56:49;;;;;;;15.80;7.82;;;;;;;12.92;100.00;102093.31;5059263;28;20044;-69
2022/10/27 02:59:15;;;;;;;12.60;7.60;;;;;;;12.94;100.00;102094.09;5056347;28;20061;-70
2022/10/27 03:01:40;;;;;;;16.63;8.07;;;;;;;12.88;100.00;102094.44;5051337;28;20037;-68
2022/10/27 03:04:06;;;;;;;18.75;8.00;;;;;;;12.84;100.00;102088.38;5059854;28;20543;-68
2022/10/27 03:06:31;;;;;;;12.05;7.68;;;;;;;12.78;100.00;102093.19;5059977;28;20052;-69
2022/10/27 03:08:57;;;;;;;15.90;7.50;;;;;;;12.76;100.00;102087.91;5053549;28;20040;-68
2022/10/27 03:11:22;;;;;;;17.27;6.82;;;;;;;12.81;100.00;102083.19;5059632;28;20044;-68
2022/10/27 03:13:48;;;;;;;13.15;6.93;;;;;;;12.69;100.00;102086.50;5058937;28;20052;-69
2022/10/27 03:16:13;;;;;;;16.50;7.40;;;;;;;12.63;100.00;102097.53;5072792;28;20044;-68
2022/10/27 03:18:38;;;;;;;14.75;6.47;;;;;;;12.59;100.00;102098.63;5060963;28;20036;-68
2022/10/27 03:21:04;;;;;;;18.58;7.30;;;;;;;12.60;100.00;102098.56;5052486;28;20613;-68
2022/10/27 03:23:29;;;;;;;10.85;6.03;;;;;;;12.70;100.00;102090.91;5054088;28;20048;-68
2022/10/27 03:25:55;;;;;;;11.38;6.85;;;;;;;12.65;100.00;102085.81;5048883;28;20036;-69
2022/10/27 03:28:20;;;;;;;12.75;6.38;;;;;;;12.71;100.00;102087.28;5060689;28;20041;-68
2022/10/27 03:30:46;;;;;;;13.90;6.95;;;;;;;12.65;100.00;102087.59;5050307;28;20559;-68
2022/10/27 03:33:11;;;;;;;14.18;6.60;;;;;;;12.64;100.00;102086.72;5060390;28;20044;-68
2022/10/27 03:35:37;;;;;;;15.20;6.95;;;;;;;12.70;100.00;102081.09;5055648;28;20044;-68
2022/10/27 03:38:02;;;;;;;17.77;6.72;;;;;;;12.70;100.00;102078.41;5053285;28;20033;-68
2022/10/27 03:40:28;;;;;;;16.85;6.20;;;;;;;12.62;100.00;102072.56;5050724;28;20048;-68
2022/10/27 03:42:57;;;;;;;15.25;6.18;;;;;;;12.59;100.00;102077.22;5049025;28;20271;-67
2022/10/27 03:45:27;;;;;;;10.85;6.22;;;;;;;12.58;100.00;102071.00;5076207;28;20048;-68
2022/10/27 03:48:11;;;;;;;11.52;6.55;;;;;;;12.56;100.00;102075.56;5053022;28;20037;-68
2022/10/27 03:50:36;;;;;;;15.23;6.57;;;;;;;12.65;100.00;102074.22;5049892;28;20044;-68
2022/10/27 03:53:02;;;;;;;15.25;6.90;;;;;;;12.62;100.00;102075.25;5059061;28;20037;-67
2022/10/27 03:55:29;;;;;;;12.43;5.93;;;;;;;12.57;100.00;102073.75;5045824;28;20828;-68
2022/10/27 03:57:54;;;;;;;15.63;6.22;;;;;;;12.47;100.00;102076.06;5052594;28;20037;-68
2022/10/27 04:00:20;;;;;;;18.02;6.25;;;;;;;12.32;100.00;102072.34;5056254;28;20045;-68
2022/10/27 04:02:46;;;;;;;11.30;5.90;;;;;;;12.15;100.00;102075.88;5057824;28;20083;-69
2022/10/27 04:05:11;;;;;;;13.48;6.75;;;;;;;12.10;100.00;102079.75;5058635;28;20080;-69
2022/10/27 04:07:37;;;;;;;15.05;6.93;;;;;;;12.04;100.00;102082.69;5058948;28;20037;-69
2022/10/27 04:10:02;;;;;;;14.80;7.03;;;;;;;11.98;100.00;102083.88;5059523;28;20032;-68
2022/10/27 04:12:28;;;;;;;16.77;6.78;;;;;;;11.99;100.00;102088.25;5056100;28;20047;-68
2022/10/27 04:14:53;;;;;;;12.07;6.00;;;;;;;11.83;100.00;102082.81;5061964;28;20048;-67
2022/10/27 04:17:19;;;;;;;15.35;6.78;;;;;;;11.92;100.00;102082.38;5054708;28;20055;-68
2022/10/27 04:19:44;;;;;;;14.85;6.72;;;;;;;11.87;100.00;102076.38;5060378;28;20060;-67
2022/10/27 04:22:10;;;;;;;15.85;7.25;;;;;;;11.92;100.00;102079.69;5062137;28;20024;-69
2022/10/27 04:24:39;;;;;;;12.40;7.10;;;;;;;11.86;100.00;102076.47;5054397;28;20045;-68
2022/10/27 04:27:05;;;;;;;13.90;7.30;;;;;;;11.78;100.00;102083.94;5063072;28;20036;-69
2022/10/27 04:29:31;;;;;;;20.90;6.95;;;;;;;11.86;100.00;102081.81;5058251;28;20044;-69
2022/10/27 04:31:56;;;;;;;17.33;7.32;;;;;;;11.76;100.00;102080.50;5049711;28;20032;-68
2022/10/27 04:34:22;;;;;;;14.95;7.32;;;;;;;11.77;100.00;102075.06;5058805;28;20036;-68
2022/10/27 04:36:47;;;;;;;13.52;7.32;;;;;;;11.67;100.00;102079.97;5060841;28;20032;-68
2022/10/27 04:39:14;;;;;;;12.07;6.78;;;;;;;11.72;100.00;102085.09;5053755;28;20040;-68
2022/10/27 04:41:40;;;;;;;12.57;7.00;;;;;;;11.68;100.00;102095.06;5057043;28;20040;-67
2022/10/27 04:44:05;;;;;;;14.02;6.95;;;;;;;11.65;100.00;102084.53;5049204;28;20041;-68
2022/10/27 04:46:31;;;;;;;11.70;6.60;;;;;;;11.65;100.00;102091.69;5052874;28;20508;-67
2022/10/27 04:48:56;;;;;;;11.60;6.57;;;;;;;11.67;100.00;102090.66;5053081;28;20044;-69
2022/10/27 04:51:22;;;;;;;16.23;7.45;;;;;;;11.59;100.00;102094.63;5058496;28;20044;-68
2022/10/27 04:53:47;;;;;;;13.18;6.28;;;;;;;11.60;100.00;102094.59;5057077;28;20460;-69
2022/10/27 04:56:13;;;;;;;16.27;6.68;;;;;;;11.56;100.00;102098.34;5062228;28;20409;-69
2022/10/27 04:58:39;;;;;;;15.52;6.90;;;;;;;11.58;100.00;102098.25;5058803;28;20095;-69
2022/10/27 05:01:12;;;;;;;35.28;8.82;;;;;;;11.51;100.00;102091.47;5054868;28;20044;-69
2022/10/27 05:03:37;;;;;;;13.55;6.50;;;;;;;11.38;100.00;102099.19;5056248;28;20033;-68
2022/10/27 05:06:03;;;;;;;19.30;8.15;;;;;;;11.42;100.00;102092.78;5059838;28;20092;-69
2022/10/27 05:08:30;;;;;;;16.98;8.50;;;;;;;11.40;100.00;102098.19;5057311;28;20825;-69
2022/10/27 05:10:55;;;;;;;9.10;5.97;;;;;;;11.50;100.00;102095.97;5055091;28;20033;-69
2022/10/27 05:13:21;;;;;;;11.65;5.85;;;;;;;11.54;100.00;102094.84;5060609;28;20097;-69
2022/10/27 05:15:47;;;;;;;11.85;5.75;;;;;;;11.49;100.00;102091.53;5053844;28;20039;-68
2022/10/27 05:18:12;;;;;;;19.20;6.93;;;;;;;11.50;100.00;102093.28;5053375;28;20040;-69
2022/10/27 05:20:38;;;;;;;18.75;7.18;;;;;;;11.45;100.00;102097.13;5081885;28;20036;-69
2022/10/27 05:23:04;;;;;;;15.68;6.72;;;;;;;11.56;100.00;102095.66;5053003;28;20504;-69
2022/10/27 05:25:29;;;;;;;13.23;5.85;;;;;;;11.46;100.00;102097.03;5068432;28;20040;-68
2022/10/27 05:28:05;;;;;;;16.70;6.93;;;;;;;11.27;100.00;102101.50;5077582;28;20477;-69
2022/10/27 05:30:30;;;;;;;15.52;6.50;;;;;;;11.34;100.00;102093.13;5055432;28;20140;-69
2022/10/27 05:32:56;;;;;;;18.25;7.28;;;;;;;11.40;100.00;102090.19;5058826;28;20049;-69
2022/10/27 05:35:21;;;;;;;15.65;7.00;;;;;;;11.31;100.00;102100.44;5059655;28;20052;-69
2022/10/27 05:37:47;;;;;;;13.82;5.47;;;;;;;11.13;100.00;102094.13;5061248;28;20040;-69
2022/10/27 05:40:13;;;;;;;15.27;6.10;;;;;;;11.06;100.00;102092.66;5053414;28;20059;-68
2022/10/27 05:42:39;;;;;;;9.10;5.25;;;;;;;11.18;100.00;102093.91;5056687;28;20113;-69
2022/10/27 05:45:04;;;;;;;13.68;6.32;;;;;;;11.21;100.00;102097.31;5051159;28;20044;-69
2022/10/27 05:47:30;;;;;;;17.27;7.05;;;;;;;11.12;100.00;102101.25;5054121;28;20075;-69
2022/10/27 05:49:55;;;;;;;20.83;8.52;;;;;;;11.14;100.00;102103.84;5059238;28;20201;-69
2022/10/27 05:52:21;;;;;;;22.40;7.97;;;;;;;11.13;100.00;102100.31;5057293;28;20048;-68
2022/10/27 05:54:46;;;;;;;16.58;7.65;;;;;;;10.98;100.00;102093.00;5054166;28;20492;-68
2022/10/27 05:57:11;;;;;;;13.45;6.70;;;;;;;11.05;100.00;102094.47;5053312;28;20369;-68
2022/10/27 05:59:37;;;;;;;14.02;6.57;;;;;;;11.04;100.00;102086.50;5056596;28;20045;-69
2022/10/27 06:02:02;;;;;;;16.35;6.90;;;;;;;10.98;100.00;102087.66;5056990;28;20098;-70
2022/10/27 06:04:28;;;;;;;10.70;6.35;;;;;;;10.93;100.00;102083.47;5060182;28;20504;-69
2022/10/27 06:06:53;;;;;;;9.60;5.50;;;;;;;10.96;100.00;102084.22;5058095;28;20710;-69
2022/10/27 06:09:19;;;;;;;16.20;6.80;;;;;;;11.02;100.00;102081.25;5053857;28;20049;-70
2022/10/27 06:11:44;;;;;;;12.40;7.32;;;;;;;11.12;100.00;102093.25;5049471;28;20520;-69
2022/10/27 06:14:09;;;;;;;15.63;6.85;;;;;;;11.16;100.00;102093.97;5057471;28;20554;-69
2022/10/27 06:16:35;;;;;;;24.38;8.10;;;;;;;11.17;100.00;102094.84;5068004;28;20036;-69
2022/10/27 06:19:00;;;;;;;16.65;6.95;;;;;;;11.22;100.00;102098.16;5061731;28;20040;-69
2022/10/27 06:21:26;;;;;;;19.77;8.05;;;;;;;11.33;100.00;102098.53;5052643;28;20095;-68
2022/10/27 06:23:51;;;;;;;17.25;8.07;;;;;;;11.30;100.00;102091.56;5059575;28;20158;-69
2022/10/27 06:26:17;;;;;;;14.65;7.18;;;;;;;11.31;100.00;102098.63;5057790;28;20101;-69
2022/10/27 06:28:42;;;;;;;21.17;8.10;;;;;;;11.36;100.00;102090.41;5057729;28;20040;-69
2022/10/27 06:31:08;;;;;;;15.27;7.25;;;;;;;11.39;100.00;102099.09;5058234;28;20548;-68
2022/10/27 06:33:33;;;;;;;23.70;8.57;;;;;;;11.51;100.00;102086.13;5057703;28;20503;-69
2022/10/27 06:35:58;;;;;;;14.77;6.72;;;;;;;11.51;100.00;102088.81;5058094;28;20548;-68
2022/10/27 06:38:24;;;;;;;13.25;7.00;;;;;;;11.45;100.00;102084.63;5053122;28;20794;-69
2022/10/27 06:40:49;;;;;;;14.45;7.13;;;;;;;11.40;100.00;102086.66;5056584;28;20028;-69
2022/10/27 06:43:15;;;;;;;25.67;6.82;;;;;;;11.37;100.00;102086.78;5057284;28;20090;-69
2022/10/27 06:45:45;;;;;;;16.27;7.40;;;;;;;11.62;100.00;102084.69;5045486;28;20703;-69
2022/10/27 06:48:11;;;;;;;16.90;7.40;;;;;;;11.58;100.00;102092.91;5055593;28;20039;-69
2022/10/27 06:50:36;;;;;;;14.43;7.18;;;;;;;11.64;100.00;102087.28;5059463;28;20032;-69
2022/10/27 06:53:02;;;;;;;14.05;7.45;;;;;;;11.52;100.00;102085.19;5057484;28;20774;-69
2022/10/27 06:55:28;;;;;;;13.23;7.03;;;;;;;11.67;100.00;102079.97;5054002;28;20496;-68
2022/10/27 06:57:53;;;;;;;13.98;7.45;;;;;;;11.85;100.00;102074.75;5052756;28;20710;-69
2022/10/27 07:00:19;;;;;;;13.82;6.72;;;;;;;11.84;100.00;102089.00;5051457;28;20043;-69
2022/10/27 07:02:45;;;;;;;23.02;7.18;;;;;;;12.07;100.00;102086.09;5053421;28;20044;-69
2022/10/27 07:05:11;;;;;;;15.00;6.68;;;;;;;12.22;100.00;102076.44;5049444;28;20039;-69
2022/10/27 07:07:36;;;;;;;13.77;6.32;;;;;;;12.42;100.00;102073.59;5047939;28;20110;-69
2022/10/27 07:10:04;;;;;;;16.17;7.03;;;;;;;12.62;100.00;102074.41;5054822;28;20048;-69
2022/10/27 07:12:30;;;;;;;11.15;5.53;;;;;;;12.80;100.00;102078.78;5056583;28;20397;-68
2022/10/27 07:14:55;;;;;;;12.13;5.32;;;;;;;12.98;100.00;102074.25;5056841;28;20043;-69
2022/10/27 07:17:21;;;;;;;9.40;4.63;;;;;;;13.06;100.00;102082.75;5058832;28;20044;-69
2022/10/27 07:19:46;;;;;;;14.27;4.78;;;;;;;13.09;100.00;102077.22;5067492;28;20044;-69
2022/10/27 07:22:11;;;;;;;17.33;5.40;;;;;;;13.16;100.00;102075.09;5057720;28;20413;-69
2022/10/27 07:24:37;;;;;;;11.50;5.03;;;;;;;13.18;100.00;102078.53;5060085;28;20044;-69
2022/10/27 07:27:02;;;;;;;9.15;4.40;;;;;;;13.29;100.00;102072.63;5058049;28;20052;-68
2022/10/27 07:29:28;;;;;;;17.13;4.47;;;;;;;13.33;100.00;102068.81;5053929;28;20044;-70
2022/10/27 07:31:54;;;;;;;10.00;4.68;;;;;;;13.39;100.00;102068.47;5054866;28;20489;-69
2022/10/27 07:34:19;;;;;;;8.40;5.03;;;;;;;13.41;100.00;102069.28;5056631;28;20461;-69
2022/10/27 07:36:45;;;;;;;9.77;5.07;;;;;;;13.52;100.00;102055.28;5053583;28;20405;-69
2022/10/27 07:39:10;;;;;;;7.30;4.30;;;;;;;13.54;100.00;102054.22;5051283;28;20025;-70
2022/10/27 07:41:36;;;;;;;13.82;5.18;;;;;;;13.61;100.00;102057.44;5052945;28;20033;-69
2022/10/27 07:44:01;;;;;;;8.75;5.15;;;;;;;13.64;100.00;102050.06;5067587;28;20060;-69
2022/10/27 07:46:28;;;;;;;8.05;4.60;;;;;;;13.72;100.00;102057.69;5041917;28;20056;-69
2022/10/27 07:48:53;;;;;;;11.45;5.38;;;;;;;13.77;100.00;102058.28;5060959;28;20063;-69
2022/10/27 07:51:19;;;;;;;13.35;5.30;;;;;;;13.85;100.00;102055.16;5056111;28;20504;-69
2022/10/27 07:53:44;;;;;;;13.25;5.28;;;;;;;13.96;100.00;102063.47;5063137;28;20527;-69
2022/10/27 07:56:10;;;;;;;12.88;4.95;;;;;;;14.06;100.00;102066.47;5060147;28;20523;-69
2022/10/27 07:58:35;;;;;;;14.25;4.85;;;;;;;14.13;100.00;102059.78;5060562;28;20546;-70
2022/10/27 08:01:03;;;;;;;8.57;4.88;;;;;;;14.23;100.00;102066.34;5061110;28;20567;-69
2022/10/27 08:03:30;;;;;;;15.20;6.40;;;;;;;14.30;100.00;102058.78;5061340;28;20040;-68
2022/10/27 08:05:59;;;;;;;13.52;4.70;;;;;;;14.34;100.00;102057.66;5060267;28;20827;-69
2022/10/27 08:08:24;;;;;;;10.45;4.10;;;;;;;14.34;100.00;102065.69;5061763;28;20056;-69
2022/10/27 08:10:50;;;;;;;15.55;4.60;;;;;;;14.37;100.00;102073.56;5053697;28;20036;-69
2022/10/27 08:13:16;;;;;;;8.10;3.92;;;;;;;14.39;100.00;102066.28;5076338;28;20071;-69
2022/10/27 08:15:42;;;;;;;8.55;4.07;;;;;;;14.43;100.00;102073.19;5057439;28;20079;-68
2022/10/27 08:18:09;;;;;;;8.80;4.32;;;;;;;14.43;100.00;102073.19;5056576;28;20124;-68
2022/10/27 08:20:39;;;;;;;10.20;3.92;;;;;;;14.50;100.00;102059.34;5055542;28;20091;-68
2022/10/27 08:23:08;;;;;;;12.13;4.38;;;;;;;14.66;100.00;102053.03;5058373;28;20099;-69
2022/10/27 08:25:34;;;;;;;8.63;3.63;;;;;;;14.75;100.00;102053.34;5055244;28;20082;-68
2022/10/27 08:28:00;;;;;;;8.52;3.95;;;;;;;14.81;100.00;102062.88;5056255;28;20108;-68
2022/10/27 08:30:28;;;;;;;11.93;3.25;;;;;;;14.93;100.00;102061.22;5062151;28;20028;-69
2022/10/27 08:32:58;;;;;;;6.88;3.35;;;;;;;15.06;100.00;102055.94;5048868;28;20032;-68
2022/10/27 08:35:25;;;;;;;7.30;2.90;;;;;;;15.20;100.00;102050.56;5054960;28;20040;-68
2022/10/27 08:38:02;;;;;;;5.50;2.70;;;;;;;15.37;100.00;102046.81;5053429;28;20037;-69
2022/10/27 08:40:41;;;;;;;6.95;2.95;;;;;;;15.49;100.00;102056.75;5060633;28;20051;-68
2022/10/27 08:43:22;;;;;;;7.88;3.28;;;;;;;15.69;100.00;102056.38;5060522;28;20098;-69
2022/10/27 08:46:00;;;;;;;7.30;3.03;;;;;;;15.94;100.00;102050.22;5053886;28;20041;-69
2022/10/27 08:48:27;;;;;;;6.60;2.90;;;;;;;16.08;100.00;102060.06;5059947;28;20052;-69
2022/10/27 08:50:53;;;;;;;4.93;2.42;;;;;;;16.05;100.00;102053.06;5053733;28;20047;-69
2022/10/27 08:53:39;;;;;;;5.32;2.33;;;;;;;16.28;100.00;102050.66;5049306;28;20899;-68
2022/10/27 08:56:09;;;;;;;7.55;2.55;;;;;;;16.31;100.00;102047.72;5056428;28;20136;-68
2022/10/27 08:58:38;;;;;;;4.80;2.20;;;;;;;16.11;100.00;102045.53;5058521;28;20037;-69
2022/10/27 09:01:31;;;;;;;10.57;2.72;;;;;;;16.31;100.00;102045.03;5048203;28;20390;-70
2022/10/27 09:04:08;;;;;;;6.53;2.35;;;;;;;16.41;100.00;102043.44;5064472;28;20032;-70
2022/10/27 09:06:44;;;;;;;4.95;2.40;;;;;;;16.71;100.00;102045.88;5054987;28;20059;-69
2022/10/27 09:09:38;;;;;;;4.22;2.38;;;;;;;16.77;100.00;102044.59;5064011;28;20505;-68
2022/10/27 09:12:22;;;;;;;6.30;2.38;;;;;;;16.77;100.00;102048.16;5060297;28;20041;-69
2022/10/27 09:14:50;;;;;;;5.57;2.10;;;;;;;16.76;100.00;102040.16;5058647;28;20571;-68
2022/10/27 09:17:19;;;;;;;3.63;2.25;;;;;;;16.71;100.00;102028.81;5056778;28;20067;-68
2022/10/27 09:19:54;;;;;;;3.78;1.90;;;;;;;16.81;100.00;102022.69;5059455;28;20047;-68
2022/10/27 09:22:20;;;;;;;6.13;3.25;;;;;;;16.91;100.00;102014.84;5055933;28;20633;-70
2022/10/27 09:25:12;;;;;;;7.47;2.22;;;;;;;16.86;100.00;102013.44;5075260;28;20040;-69
2022/10/27 09:27:41;;;;;;;7.93;2.10;;;;;;;16.92;100.00;102013.00;5054492;28;20044;-69
2022/10/27 09:30:12;;;;;;;8.98;2.15;;;;;;;16.99;100.00;102012.47;5059884;28;20102;-69
2022/10/27 09:32:40;;;;;;;7.25;2.30;;;;;;;17.06;100.00;102018.25;5057948;28;20111;-68
2022/10/27 09:35:14;;;;;;;6.70;1.95;;;;;;;17.20;100.00;102015.44;5064524;28;20490;-69
2022/10/27 09:37:41;;;;;;;5.55;1.80;;;;;;;17.35;100.00;102018.84;5048894;28;20036;-69
2022/10/27 09:40:12;;;;;;;9.02;2.40;;;;;;;17.48;100.00;102008.03;5050936;28;20048;-69
2022/10/27 09:42:37;;;;;;;11.48;2.53;;;;;;;17.57;100.00;102002.81;5059219;28;20102;-69
2022/10/27 09:45:15;;;;;;;2.80;1.45;;;;;;;17.74;99.52;102001.59;5056630;28;20040;-70
2022/10/27 09:47:43;;;;;;;4.78;2.30;;;;;;;17.95;99.53;101995.53;5055839;28;20481;-69
2022/10/27 09:50:19;;;;;;;5.93;1.92;;;;;;;17.88;97.66;101997.00;5057943;28;20120;-69
2022/10/27 09:52:44;;;;;;;4.25;1.55;;;;;;;18.07;97.27;101995.47;5045888;28;20059;-68
2022/10/27 09:55:10;;;;;;;3.08;1.48;;;;;;;18.42;93.95;101988.31;5049937;28;20045;-68
2022/10/27 09:57:39;;;;;;;4.07;1.60;;;;;;;18.19;93.08;101982.88;5056567;28;20044;-69
2022/10/27 10:00:22;;;;;;;4.43;1.55;;;;;;;18.39;93.41;101978.63;5055015;28;20305;-69
2022/10/27 10:03:16;;;;;;;5.35;1.52;;;;;;;18.59;92.17;101979.75;5054504;28;20048;-69
2022/10/27 10:05:43;;;;;;;5.40;1.80;;;;;;;18.44;89.33;101973.72;5054087;28;20051;-70
2022/10/27 10:08:28;;;;;;;2.55;1.30;;;;;;;18.69;90.12;101964.56;5048219;28;20470;-69
2022/10/27 10:10:59;;;;;;;2.97;1.77;;;;;;;18.66;88.19;101966.59;5054654;28;20381;-68
2022/10/27 10:13:27;;;;;;;4.45;1.77;;;;;;;18.75;86.25;101958.66;5048789;28;20128;-72
2022/10/27 10:16:13;;;;;;;10.20;1.40;;;;;;;19.00;86.00;101962.09;5057595;28;20044;-69
2022/10/27 10:18:42;;;;;;;3.58;1.10;;;;;;;18.93;86.04;101959.03;5052460;28;20043;-69
2022/10/27 10:21:10;;;;;;;2.95;1.35;;;;;;;18.99;86.70;101969.34;5055001;28;20101;-70
2022/10/27 10:23:49;;;;;;;2.80;1.30;;;;;;;19.06;86.36;101969.69;5050396;28;20059;-70
2022/10/27 10:26:22;;;;;;;3.55;1.15;;;;;;;19.02;87.30;101969.06;5049660;28;20047;-69
2022/10/27 10:28:53;;;;;;;5.32;1.08;;;;;;;19.02;85.03;101963.66;5056236;28;20033;-69
2022/10/27 10:31:27;;;;;;;6.00;1.95;;;;;;;19.03;83.00;101964.56;5079481;28;20117;-69
2022/10/27 10:34:07;;;;;;;4.13;1.40;;;;;;;19.18;83.95;101951.59;5055193;28;20161;-69
2022/10/27 10:36:35;;;;;;;2.80;1.10;;;;;;;19.20;82.72;101952.34;5051539;28;20036;-70
2022/10/27 10:39:02;;;;;;;5.55;1.27;;;;;;;19.20;82.57;101961.31;5058106;28;20164;-70
2022/10/27 10:41:29;;;;;;;3.67;1.38;;;;;;;19.28;81.94;101958.00;5056563;28;20040;-69
2022/10/27 10:44:15;;;;;;;2.25;1.13;;;;;;;19.48;82.35;101956.31;5054637;28;20032;-70
2022/10/27 10:46:51;;;;;;;1.95;1.20;;;;;;;19.53;82.28;101960.38;5056464;28;20067;-70
2022/10/27 10:49:22;;;;;;;4.18;1.10;;;;;;;19.42;80.86;101945.03;5055879;28;20083;-70
2022/10/27 10:51:55;;;;;;;5.70;1.35;;;;;;;19.36;80.33;101948.25;5056113;28;20579;-70
2022/10/27 10:54:29;;;;;;;2.08;1.30;;;;;;;19.48;80.54;101930.16;5055948;28;20082;-69
2022/10/27 10:56:54;;;;;;;4.70;1.27;;;;;;;19.28;81.17;101928.25;5054764;28;20051;-70
2022/10/27 10:59:26;;;;;;;2.97;1.02;;;;;;;19.26;80.54;101922.09;5055117;28;20036;-71
2022/10/27 11:02:09;;;;;;;3.78;1.10;;;;;;;19.46;80.28;101912.31;5056273;28;20032;-70
2022/10/27 11:04:43;;;;;;;6.07;1.52;;;;;;;19.42;80.26;101896.31;5066201;28;20099;-69
2022/10/27 11:07:30;;;;;;;3.70;1.20;;;;;;;19.33;81.14;101907.09;5048425;28;20102;-70
2022/10/27 11:10:01;;;;;;;2.40;1.50;;;;;;;19.51;79.75;101910.94;5066930;28;20063;-70
2022/10/27 11:12:41;;;;;;;5.33;1.03;;;;;;;19.50;78.53;101900.25;5057850;28;20075;-70
2022/10/27 11:15:20;;;;;;;5.95;1.35;;;;;;;19.49;78.14;101895.84;5048609;28;21159;-70
2022/10/27 11:17:49;;;;;;;2.17;0.88;;;;;;;19.57;79.24;101910.41;5055212;28;20044;-70
2022/10/27 11:20:23;;;;;;;1.63;1.13;;;;;;;19.93;78.46;101902.91;5051963;28;20044;-69
2022/10/27 11:22:51;;;;;;;6.80;1.05;;;;;;;19.94;78.45;101912.75;5061975;28;20040;-70